createdAt,value
2022-11-16T00:01:37.472Z,7.00
2022-11-16T00:04:04.831Z,6.63
2022-11-16T00:06:31.994Z,7.22
2022-11-16T00:09:20.714Z,6.78
2022-11-16T00:11:50.261Z,7.18
2022-11-16T00:14:20.018Z,7.07
2022-11-16T00:16:47.651Z,7.03
2022-11-16T00:19:14.829Z,7.43
2022-11-16T00:21:42.493Z,7.50
2022-11-16T00:24:13.872Z,7.32
2022-11-16T00:26:42.135Z,7.43
2022-11-16T00:29:17.313Z,7.35
2022-11-16T00:31:45.424Z,8.00
2022-11-16T00:34:13.228Z,8.15
2022-11-16T00:36:40.506Z,7.80
2022-11-16T00:39:07.763Z,8.20
2022-11-16T00:41:34.855Z,7.75
2022-11-16T00:44:02.064Z,7.85
2022-11-16T00:46:29.413Z,8.15
2022-11-16T00:48:56.588Z,9.05
2022-11-16T00:51:23.872Z,8.20
2022-11-16T00:53:51.124Z,8.40
2022-11-16T00:56:18.438Z,9.02
2022-11-16T00:58:45.731Z,8.38
2022-11-16T01:01:13.290Z,8.35
2022-11-16T01:03:41.103Z,9.05
2022-11-16T01:06:10.693Z,8.35
2022-11-16T01:08:39.755Z,8.95
2022-11-16T01:11:26.731Z,8.73
2022-11-16T01:13:54.599Z,9.57
2022-11-16T01:16:23.719Z,8.75
2022-11-16T01:18:53.584Z,9.70
2022-11-16T01:21:21.820Z,9.70
2022-11-16T01:23:49.200Z,9.68
2022-11-16T01:26:16.464Z,9.45
2022-11-16T01:28:43.821Z,9.63
2022-11-16T01:31:11.749Z,10.23
2022-11-16T01:33:39.563Z,10.10
2022-11-16T01:36:15.085Z,9.73
2022-11-16T01:38:46.947Z,9.93
2022-11-16T01:41:19.720Z,9.88
2022-11-16T01:44:02.600Z,10.80
2022-11-16T01:46:30.702Z,9.93
2022-11-16T01:49:11.414Z,10.32
2022-11-16T01:51:41.354Z,9.73
2022-11-16T01:54:11.068Z,10.13
2022-11-16T01:56:39.971Z,9.90
2022-11-16T01:59:07.654Z,10.30
2022-11-16T02:01:35.100Z,9.60
2022-11-16T02:04:02.349Z,9.38
2022-11-16T02:07:02.221Z,9.50
2022-11-16T02:09:58.485Z,9.15
2022-11-16T02:12:33.793Z,10.88
2022-11-16T02:15:16.219Z,8.93
2022-11-16T02:18:01.680Z,9.57
2022-11-16T02:20:53.198Z,9.50
2022-11-16T02:23:38.706Z,7.03
2022-11-16T02:26:38.420Z,7.25
2022-11-16T02:29:43.025Z,6.63
2022-11-16T02:33:08.377Z,6.43
2022-11-16T02:35:50.114Z,6.28
2022-11-16T02:38:30.346Z,6.68
2022-11-16T02:41:12.399Z,6.07
2022-11-16T02:43:45.096Z,6.35
2022-11-16T02:46:20.035Z,6.00
2022-11-16T02:48:50.942Z,5.38
2022-11-16T02:51:19.803Z,5.40
2022-11-16T02:54:13.195Z,4.40
2022-11-16T02:56:57.332Z,3.92
2022-11-16T02:59:29.333Z,4.03
2022-11-16T03:02:25.352Z,4.00
2022-11-16T03:05:00.488Z,4.50
2022-11-16T03:07:33.866Z,5.00
2022-11-16T03:10:02.529Z,4.97
2022-11-16T03:12:34.157Z,4.05
2022-11-16T03:15:09.777Z,4.68
2022-11-16T03:17:46.556Z,4.07
2022-11-16T03:20:18.273Z,2.90
2022-11-16T03:22:58.521Z,3.00
2022-11-16T03:25:31.126Z,2.63
2022-11-16T03:28:15.827Z,2.40
2022-11-16T03:31:14.139Z,2.35
2022-11-16T03:33:54.082Z,2.45
2022-11-16T03:36:26.818Z,2.20
2022-11-16T03:38:57.949Z,2.30
2022-11-16T03:41:28.483Z,1.85
2022-11-16T03:43:56.889Z,2.05
2022-11-16T03:46:24.368Z,1.70
2022-11-16T03:48:57.662Z,1.67
2022-11-16T03:51:25.314Z,1.70
2022-11-16T03:53:52.495Z,1.70
2022-11-16T03:56:20.061Z,1.58
2022-11-16T03:58:47.339Z,1.33
2022-11-16T04:01:14.811Z,1.40
2022-11-16T04:03:42.095Z,1.70
2022-11-16T04:06:29.242Z,1.50
2022-11-16T04:09:14.986Z,1.80
2022-11-16T04:12:00.632Z,1.75
2022-11-16T04:14:47.559Z,1.52
2022-11-16T04:17:35.329Z,1.75
2022-11-16T04:20:22.504Z,1.60
2022-11-16T04:23:11.251Z,1.67
2022-11-16T04:25:40.470Z,1.65
2022-11-16T04:28:14.692Z,1.60
2022-11-16T04:33:48.917Z,1.88
2022-11-16T04:36:34.964Z,1.88
2022-11-16T04:39:02.482Z,1.65
2022-11-16T04:41:53.134Z,1.55
2022-11-16T04:44:20.420Z,1.80
2022-11-16T04:47:06.378Z,1.88
2022-11-16T04:49:34.047Z,1.77
2022-11-16T04:52:01.366Z,2.00
2022-11-16T04:54:29.013Z,2.35
2022-11-16T04:56:56.292Z,2.28
2022-11-16T04:59:23.411Z,2.35
2022-11-16T05:02:08.690Z,2.67
2022-11-16T05:04:41.563Z,2.65
2022-11-16T05:07:16.175Z,2.10
2022-11-16T05:09:46.789Z,2.45
2022-11-16T05:12:22.970Z,2.20
2022-11-16T05:14:50.636Z,2.25
2022-11-16T05:17:19.613Z,2.10
2022-11-16T05:20:05.425Z,1.90
2022-11-16T05:22:32.977Z,2.33
2022-11-16T05:25:00.369Z,2.45
2022-11-16T05:27:29.191Z,2.20
2022-11-16T05:29:56.905Z,2.67
2022-11-16T05:32:25.752Z,6.45
2022-11-16T05:34:53.071Z,4.00
2022-11-16T05:37:26.926Z,2.63
2022-11-16T05:39:57.541Z,2.33
2022-11-16T05:42:25.097Z,2.50
2022-11-16T05:44:52.339Z,2.78
2022-11-16T05:47:19.415Z,2.55
2022-11-16T05:49:46.539Z,3.08
2022-11-16T05:52:13.783Z,2.92
2022-11-16T05:54:40.946Z,2.53
2022-11-16T05:57:08.200Z,2.90
2022-11-16T05:59:35.649Z,2.95
2022-11-16T06:02:04.211Z,3.00
2022-11-16T06:04:31.494Z,2.78
2022-11-16T06:06:58.758Z,2.67
2022-11-16T06:09:25.977Z,3.00
2022-11-16T06:11:53.234Z,3.03
2022-11-16T06:14:20.533Z,3.00
2022-11-16T06:16:47.582Z,3.20
2022-11-16T06:19:15.020Z,3.40
2022-11-16T06:21:42.150Z,3.33
2022-11-16T06:24:09.943Z,3.67
2022-11-16T06:26:37.515Z,3.60
2022-11-16T06:29:05.084Z,3.45
2022-11-16T06:31:32.304Z,3.95
2022-11-16T06:33:59.483Z,5.22
2022-11-16T06:36:26.509Z,5.03
2022-11-16T06:38:53.659Z,4.90
2022-11-16T06:41:21.222Z,3.97
2022-11-16T06:43:48.298Z,4.15
2022-11-16T06:46:15.384Z,4.55
2022-11-16T06:48:42.478Z,3.85
2022-11-16T06:51:09.512Z,3.90
2022-11-16T06:53:36.652Z,3.97
2022-11-16T06:56:05.298Z,4.20
2022-11-16T06:58:33.363Z,3.97
2022-11-16T07:01:08.377Z,3.17
2022-11-16T07:03:35.456Z,3.47
2022-11-16T07:06:07.276Z,3.58
2022-11-16T07:08:37.035Z,3.30
2022-11-16T07:11:08.799Z,3.25
2022-11-16T07:13:37.846Z,3.53
2022-11-16T07:16:10.166Z,2.80
2022-11-16T07:18:40.626Z,2.45
2022-11-16T07:21:15.901Z,2.80
2022-11-16T07:23:43.568Z,2.90
2022-11-16T07:26:11.421Z,2.50
2022-11-16T07:28:42.077Z,3.03
2022-11-16T07:31:14.284Z,2.70
2022-11-16T07:33:41.564Z,2.60
2022-11-16T07:36:14.562Z,2.20
2022-11-16T07:38:41.943Z,2.10
2022-11-16T07:41:18.546Z,2.38
2022-11-16T07:43:51.543Z,2.80
2022-11-16T07:49:16.495Z,2.05
2022-11-16T07:51:44.574Z,2.00
2022-11-16T07:54:15.659Z,1.85
2022-11-16T07:56:43.007Z,2.55
2022-11-16T07:59:10.318Z,2.30
2022-11-16T08:01:37.554Z,2.25
2022-11-16T08:04:04.895Z,1.88
2022-11-16T08:06:32.802Z,2.50
2022-11-16T08:09:01.038Z,2.22
2022-11-16T08:11:28.457Z,1.63
2022-11-16T08:13:57.866Z,2.20
2022-11-16T08:16:25.255Z,2.15
2022-11-16T08:18:52.568Z,1.42
2022-11-16T08:21:20.138Z,1.73
2022-11-16T08:23:47.649Z,1.90
2022-11-16T08:26:17.145Z,1.95
2022-11-16T08:28:45.952Z,1.65
2022-11-16T08:31:18.831Z,1.60
2022-11-16T08:33:46.198Z,1.73
2022-11-16T08:36:17.557Z,1.48
2022-11-16T08:38:52.565Z,1.70
2022-11-16T08:41:20.640Z,1.58
2022-11-16T08:43:48.826Z,1.40
2022-11-16T08:46:16.117Z,2.22
2022-11-16T08:48:43.569Z,1.60
2022-11-16T08:51:18.563Z,1.60
2022-11-16T08:53:48.588Z,1.80
2022-11-16T08:56:17.772Z,2.17
2022-11-16T08:58:56.805Z,1.65
2022-11-16T09:01:27.902Z,1.88
2022-11-16T09:03:55.958Z,1.90
2022-11-16T09:06:24.542Z,1.92
2022-11-16T09:08:52.346Z,1.98
2022-11-16T09:11:22.446Z,1.63
2022-11-16T09:13:51.426Z,1.80
2022-11-16T09:16:23.123Z,1.58
2022-11-16T09:18:52.108Z,1.73
2022-11-16T09:21:24.978Z,1.98
2022-11-16T09:23:53.491Z,1.70
2022-11-16T09:26:23.367Z,1.67
2022-11-16T09:28:58.499Z,1.67
2022-11-16T09:31:31.471Z,1.90
2022-11-16T09:33:59.340Z,1.83
2022-11-16T09:36:28.929Z,1.60
2022-11-16T09:39:28.963Z,1.95
2022-11-16T09:42:08.671Z,1.95
2022-11-16T09:45:09.150Z,1.65
2022-11-16T09:47:57.945Z,2.17
2022-11-16T09:50:54.567Z,1.80
2022-11-16T09:53:24.797Z,1.80
2022-11-16T09:55:55.495Z,2.08
2022-11-16T09:58:53.342Z,1.63
2022-11-16T10:01:37.688Z,2.03
2022-11-16T10:04:14.260Z,1.63
2022-11-16T10:07:08.347Z,1.60
2022-11-16T10:09:36.391Z,1.67
2022-11-16T10:12:31.019Z,1.52
2022-11-16T10:15:07.877Z,1.80
2022-11-16T10:17:40.991Z,1.48
2022-11-16T10:20:31.057Z,1.40
2022-11-16T10:23:26.787Z,2.05
2022-11-16T10:26:01.909Z,1.50
2022-11-16T10:28:52.980Z,1.70
2022-11-16T10:31:42.765Z,2.03
2022-11-16T10:34:19.064Z,1.48
2022-11-16T10:36:46.689Z,2.45
2022-11-16T10:39:16.834Z,1.65
2022-11-16T10:41:53.176Z,1.58
2022-11-16T10:44:33.188Z,1.77
2022-11-16T10:47:11.436Z,1.58
2022-11-16T10:49:54.394Z,1.40
2022-11-16T10:52:21.817Z,1.42
2022-11-16T10:54:49.089Z,1.55
2022-11-16T10:57:26.763Z,1.75
2022-11-16T10:59:55.830Z,1.35
2022-11-16T11:02:35.003Z,1.65
2022-11-16T11:05:14.377Z,1.80
2022-11-16T11:07:54.067Z,1.70
2022-11-16T11:10:30.434Z,1.63
2022-11-16T11:13:09.633Z,1.10
2022-11-16T11:15:41.239Z,1.20
2022-11-16T11:18:17.182Z,1.70
2022-11-16T11:21:06.369Z,1.52
2022-11-16T11:23:52.716Z,1.38
2022-11-16T11:26:54.257Z,1.30
2022-11-16T11:29:30.183Z,1.65
2022-11-16T11:32:13.403Z,1.58
2022-11-16T11:34:44.191Z,1.80
2022-11-16T11:37:19.529Z,1.70
2022-11-16T11:39:46.921Z,1.58
2022-11-16T11:42:14.203Z,1.40
2022-11-16T11:44:50.555Z,1.30
2022-11-16T11:47:58.770Z,1.25
2022-11-16T11:50:57.354Z,1.60
2022-11-16T11:53:45.846Z,1.60
2022-11-16T11:56:14.585Z,1.60
2022-11-16T11:58:42.765Z,1.50
2022-11-16T12:01:38.536Z,1.80
2022-11-16T12:04:29.706Z,1.88
2022-11-16T12:07:38.689Z,1.50
2022-11-16T12:10:43.115Z,1.67
2022-11-16T12:13:32.101Z,1.60
2022-11-16T12:16:20.385Z,1.60
2022-11-16T12:19:21.146Z,1.77
2022-11-16T12:22:08.004Z,1.60
2022-11-16T12:24:42.122Z,1.67
2022-11-16T12:30:03.343Z,1.30
2022-11-16T12:32:39.098Z,1.60
2022-11-16T12:35:39.969Z,1.63
2022-11-16T12:38:28.844Z,1.63
2022-11-16T12:41:14.012Z,1.40
2022-11-16T12:43:46.782Z,1.35
2022-11-16T12:46:25.486Z,1.65
2022-11-16T12:49:13.776Z,1.40
2022-11-16T12:52:07.292Z,1.50
2022-11-16T12:57:53.010Z,1.60
2022-11-16T13:00:20.849Z,1.40
2022-11-16T13:03:20.867Z,1.50
2022-11-16T13:05:57.370Z,1.20
2022-11-16T13:08:46.216Z,1.02
2022-11-16T13:11:13.401Z,1.20
2022-11-16T13:13:42.235Z,1.08
2022-11-16T13:16:11.249Z,0.85
2022-11-16T13:18:43.735Z,1.10
2022-11-16T13:21:11.730Z,1.23
2022-11-16T13:23:55.288Z,1.20
2022-11-16T13:26:47.336Z,1.20
2022-11-16T13:29:37.313Z,1.15
2022-11-16T13:32:30.690Z,1.20
2022-11-16T13:35:03.831Z,1.38
2022-11-16T13:37:39.781Z,1.20
2022-11-16T13:40:07.035Z,1.35
2022-11-16T13:42:45.127Z,1.10
2022-11-16T13:45:21.869Z,1.35
2022-11-16T13:47:54.269Z,1.35
2022-11-16T13:50:36.052Z,1.10
2022-11-16T13:56:11.151Z,1.35
2022-11-16T13:58:44.347Z,1.33
2022-11-16T14:01:16.511Z,1.27
2022-11-16T14:03:45.783Z,1.60
2022-11-16T14:06:25.244Z,1.35
2022-11-16T14:09:00.214Z,1.25
2022-11-16T14:11:40.670Z,1.30
2022-11-16T14:14:49.294Z,1.58
2022-11-16T14:17:55.033Z,1.92
2022-11-16T14:20:59.730Z,1.55
2022-11-16T14:23:46.840Z,1.40
2022-11-16T14:26:46.075Z,1.50
2022-11-16T14:29:35.152Z,1.38
2022-11-16T14:32:04.920Z,1.80
2022-11-16T14:34:53.427Z,1.70
2022-11-16T14:37:24.703Z,1.35
2022-11-16T14:40:00.353Z,1.40
2022-11-16T14:42:48.186Z,1.40
2022-11-16T14:45:28.504Z,1.35
2022-11-16T14:48:16.451Z,1.40
2022-11-16T14:50:45.779Z,1.92
2022-11-16T14:53:19.897Z,1.60
2022-11-16T14:55:47.167Z,1.63
2022-11-16T14:58:18.962Z,1.73
2022-11-16T15:01:14.708Z,1.90
2022-11-16T15:03:58.182Z,2.17
2022-11-16T15:06:27.312Z,1.85
2022-11-16T15:09:04.370Z,2.08
2022-11-16T15:11:59.525Z,2.15
2022-11-16T15:14:30.625Z,1.83
2022-11-16T15:17:00.223Z,2.17
2022-11-16T15:19:32.153Z,1.52
2022-11-16T15:22:04.421Z,1.42
2022-11-16T15:24:34.455Z,1.90
2022-11-16T15:27:12.975Z,1.90
2022-11-16T15:29:40.391Z,1.60
2022-11-16T15:32:15.755Z,1.52
2022-11-16T15:34:44.107Z,1.83
2022-11-16T15:37:12.652Z,2.25
2022-11-16T15:39:43.068Z,1.70
2022-11-16T15:42:15.413Z,1.80
2022-11-16T15:44:44.687Z,2.00
2022-11-16T15:47:14.708Z,2.33
2022-11-16T15:49:43.736Z,1.88
2022-11-16T15:52:11.642Z,2.08
2022-11-16T15:54:57.655Z,2.28
2022-11-16T15:57:25.342Z,1.95
2022-11-16T15:59:57.337Z,2.08
2022-11-16T16:02:29.988Z,2.08
2022-11-16T16:04:57.440Z,1.33
2022-11-16T16:07:42.221Z,1.98
2022-11-16T16:10:27.535Z,1.50
2022-11-16T16:12:57.679Z,1.75
2022-11-16T16:15:34.382Z,1.45
2022-11-16T16:18:03.251Z,1.77
2022-11-16T16:20:32.825Z,1.75
2022-11-16T16:23:15.456Z,1.42
2022-11-16T16:25:49.028Z,1.52
2022-11-16T16:28:17.860Z,1.48
2022-11-16T16:31:05.106Z,1.85
2022-11-16T16:33:32.968Z,1.60
2022-11-16T16:36:00.440Z,1.63
2022-11-16T16:38:28.044Z,1.65
2022-11-16T16:41:05.872Z,1.83
2022-11-16T16:43:33.776Z,1.85
2022-11-16T16:46:02.480Z,2.38
2022-11-16T16:48:30.199Z,1.70
2022-11-16T16:50:57.680Z,1.63
2022-11-16T16:53:25.070Z,1.77
2022-11-16T16:55:52.712Z,1.85
2022-11-16T16:58:19.928Z,1.92
2022-11-16T17:00:47.218Z,2.28
2022-11-16T17:03:14.888Z,2.35
2022-11-16T17:05:42.188Z,2.35
2022-11-16T17:08:09.502Z,2.00
2022-11-16T17:10:39.049Z,2.13
2022-11-16T17:13:06.523Z,2.13
2022-11-16T17:15:33.655Z,2.00
2022-11-16T17:18:00.906Z,2.38
2022-11-16T17:20:28.432Z,2.90
2022-11-16T17:22:56.742Z,1.98
2022-11-16T17:25:24.036Z,1.70
2022-11-16T17:27:51.469Z,2.20
2022-11-16T17:30:18.883Z,1.95
2022-11-16T17:32:46.100Z,2.42
2022-11-16T17:35:13.413Z,2.33
2022-11-16T17:37:40.559Z,2.50
2022-11-16T17:40:08.545Z,2.40
2022-11-16T17:42:36.289Z,2.03
2022-11-16T17:45:05.430Z,2.63
2022-11-16T17:47:33.713Z,2.33
2022-11-16T17:50:01.258Z,2.58
2022-11-16T17:52:28.610Z,2.70
2022-11-16T17:54:58.994Z,2.55
2022-11-16T17:57:26.194Z,2.58
2022-11-16T17:59:53.506Z,2.33
2022-11-16T18:02:20.922Z,2.17
2022-11-16T18:04:51.052Z,2.30
2022-11-16T18:07:18.830Z,2.45
2022-11-16T18:09:46.110Z,1.98
2022-11-16T18:12:13.280Z,2.78
2022-11-16T18:14:42.380Z,2.45
2022-11-16T18:17:09.906Z,2.60
2022-11-16T18:19:39.740Z,2.78
2022-11-16T18:22:06.913Z,2.65
2022-11-16T18:24:34.063Z,3.05
2022-11-16T18:27:03.487Z,2.70
2022-11-16T18:29:31.944Z,3.67
2022-11-16T18:31:59.182Z,3.33
2022-11-16T18:34:26.434Z,2.55
2022-11-16T18:36:56.103Z,2.85
2022-11-16T18:39:23.147Z,3.10
2022-11-16T18:41:55.308Z,3.08
2022-11-16T18:44:23.043Z,3.20
2022-11-16T18:46:50.177Z,3.05
2022-11-16T18:49:17.315Z,3.33
2022-11-16T18:51:44.618Z,2.92
2022-11-16T18:54:11.883Z,3.60
2022-11-16T18:56:39.385Z,3.67
2022-11-16T18:59:06.783Z,3.08
2022-11-16T19:01:34.480Z,2.97
2022-11-16T19:04:01.893Z,3.15
2022-11-16T19:06:33.214Z,3.38
2022-11-16T19:09:00.551Z,3.20
2022-11-16T19:11:28.960Z,3.58
2022-11-16T19:14:05.000Z,3.50
2022-11-16T19:16:34.048Z,3.20
2022-11-16T19:19:04.525Z,3.80
2022-11-16T19:21:32.072Z,3.15
2022-11-16T19:23:59.395Z,3.10
2022-11-16T19:26:28.780Z,3.42
2022-11-16T19:28:56.183Z,2.58
2022-11-16T19:31:31.745Z,2.95
2022-11-16T19:34:01.247Z,2.80
2022-11-16T19:36:30.293Z,2.75
2022-11-16T19:38:57.602Z,2.97
2022-11-16T19:41:26.989Z,2.88
2022-11-16T19:43:58.585Z,2.97
2022-11-16T19:46:33.278Z,3.17
2022-11-16T19:49:02.758Z,2.78
2022-11-16T19:51:32.452Z,3.05
2022-11-16T19:54:03.813Z,2.60
2022-11-16T19:56:31.134Z,2.65
2022-11-16T19:59:01.579Z,3.15
2022-11-16T20:01:29.789Z,2.78
2022-11-16T20:04:00.162Z,2.63
2022-11-16T20:06:33.178Z,3.15
2022-11-16T20:09:04.260Z,2.72
2022-11-16T20:11:34.315Z,2.90
2022-11-16T20:14:05.156Z,2.72
2022-11-16T20:16:39.298Z,3.30
2022-11-16T20:21:45.267Z,2.75
2022-11-16T20:24:15.687Z,2.63
2022-11-16T20:26:45.643Z,2.75
2022-11-16T20:29:14.026Z,2.92
2022-11-16T20:31:43.056Z,2.95
2022-11-16T20:34:16.342Z,3.42
2022-11-16T20:36:45.992Z,2.80
2022-11-16T20:39:16.561Z,2.95
2022-11-16T20:41:44.464Z,2.42
2022-11-16T20:44:16.726Z,2.63
2022-11-16T20:46:45.274Z,2.65
2022-11-16T20:49:12.617Z,2.70
2022-11-16T20:51:39.802Z,2.58
2022-11-16T20:54:07.419Z,3.00
2022-11-16T20:56:35.845Z,2.70
2022-11-16T20:59:03.127Z,2.88
2022-11-16T21:01:33.136Z,3.30
2022-11-16T21:04:03.019Z,2.33
2022-11-16T21:06:30.561Z,2.88
2022-11-16T21:09:03.239Z,2.70
2022-11-16T21:11:51.796Z,2.80
2022-11-16T21:14:19.922Z,2.38
2022-11-16T21:16:47.295Z,2.60
2022-11-16T21:19:15.787Z,2.65
2022-11-16T21:21:43.148Z,2.38
2022-11-16T21:24:10.733Z,2.15
2022-11-16T21:26:38.643Z,2.03
2022-11-16T21:29:07.723Z,2.42
2022-11-16T21:31:36.649Z,2.38
2022-11-16T21:34:06.090Z,2.30
2022-11-16T21:36:34.252Z,2.40
2022-11-16T21:39:01.483Z,2.40
2022-11-16T21:41:29.145Z,2.42
2022-11-16T21:43:56.596Z,2.40
2022-11-16T21:46:26.025Z,2.00
2022-11-16T21:48:55.642Z,2.00
2022-11-16T21:51:27.618Z,1.92
2022-11-16T21:53:55.096Z,2.45
2022-11-16T21:56:24.807Z,2.17
2022-11-16T21:58:53.277Z,2.63
2022-11-16T22:01:21.154Z,2.15
2022-11-16T22:04:08.703Z,2.35
2022-11-16T22:06:54.621Z,1.95
2022-11-16T22:09:22.062Z,1.90
2022-11-16T22:11:49.414Z,2.08
2022-11-16T22:14:19.517Z,2.22
2022-11-16T22:16:46.767Z,2.35
2022-11-16T22:19:14.059Z,1.67
2022-11-16T22:21:41.301Z,2.47
2022-11-16T22:24:11.416Z,2.45
2022-11-16T22:26:40.072Z,2.10
2022-11-16T22:29:07.206Z,2.58
2022-11-16T22:31:34.616Z,1.83
2022-11-16T22:34:01.895Z,2.10
2022-11-16T22:36:29.088Z,1.70
2022-11-16T22:38:57.288Z,2.22
2022-11-16T22:41:24.654Z,2.20
2022-11-16T22:43:51.856Z,2.22
2022-11-16T22:46:19.233Z,2.35
2022-11-16T22:48:48.089Z,2.42
2022-11-16T22:51:26.797Z,2.10
2022-11-16T22:54:01.280Z,2.00
2022-11-16T22:56:44.428Z,2.15
2022-11-16T22:59:11.635Z,2.08
2022-11-16T23:01:39.011Z,2.40
2022-11-16T23:04:06.357Z,2.08
2022-11-16T23:06:33.640Z,2.38
2022-11-16T23:09:00.777Z,2.03
2022-11-16T23:11:47.124Z,1.95
2022-11-16T23:14:35.072Z,2.33
2022-11-16T23:17:03.591Z,2.13
2022-11-16T23:19:49.460Z,2.50
2022-11-16T23:22:37.437Z,1.92
2022-11-16T23:25:24.979Z,2.33
2022-11-16T23:27:52.236Z,2.10
2022-11-16T23:30:19.408Z,2.22
2022-11-16T23:32:46.687Z,2.58
2022-11-16T23:35:15.276Z,2.20
2022-11-16T23:38:03.285Z,1.95
2022-11-16T23:40:38.950Z,2.90
2022-11-16T23:43:26.232Z,2.75
2022-11-16T23:45:53.389Z,2.45
2022-11-16T23:48:20.727Z,2.10
2022-11-16T23:50:48.111Z,2.38
2022-11-16T23:53:15.300Z,2.13
2022-11-16T23:55:42.877Z,2.33
2022-11-16T23:58:16.841Z,2.20
